createdAt,value
2018-07-27T00:01:01.888Z,17.70
2018-07-27T00:03:30.648Z,17.80
2018-07-27T00:05:59.370Z,17.90
2018-07-27T00:08:28.123Z,17.80
2018-07-27T00:10:56.796Z,17.90
2018-07-27T00:13:25.517Z,18.00
2018-07-27T00:15:54.173Z,18.00
2018-07-27T00:18:22.855Z,17.90
2018-07-27T00:20:51.533Z,17.90
2018-07-27T00:23:20.247Z,18.10
2018-07-27T00:25:48.956Z,18.10
2018-07-27T00:28:23.465Z,18.00
2018-07-27T00:30:55.229Z,18.10
2018-07-27T00:33:23.918Z,18.20
2018-07-27T00:35:52.590Z,18.10
2018-07-27T00:38:21.328Z,18.00
2018-07-27T00:40:50.028Z,17.90
2018-07-27T00:43:18.686Z,18.10
2018-07-27T00:45:47.377Z,18.30
2018-07-27T00:48:16.014Z,18.20
2018-07-27T00:50:44.745Z,18.30
2018-07-27T00:53:13.438Z,18.20
2018-07-27T00:55:42.111Z,18.00
2018-07-27T00:58:10.771Z,17.90
2018-07-27T01:00:39.456Z,17.90
2018-07-27T01:03:08.746Z,18.00
2018-07-27T01:05:37.435Z,18.10
2018-07-27T01:08:06.423Z,18.10
2018-07-27T01:10:35.096Z,18.10
2018-07-27T01:13:03.863Z,18.00
2018-07-27T01:18:01.098Z,17.70
2018-07-27T01:20:29.891Z,17.50
2018-07-27T01:22:58.580Z,17.50
2018-07-27T01:25:27.276Z,17.50
2018-07-27T01:32:53.019Z,17.30
2018-07-27T01:37:50.203Z,16.90
2018-07-27T01:42:47.346Z,16.60
2018-07-27T01:45:16.051Z,16.70
2018-07-27T01:50:13.185Z,16.90
2018-07-27T01:52:41.881Z,17.10
2018-07-27T01:55:10.635Z,17.00
2018-07-27T01:57:39.325Z,17.00
2018-07-27T02:00:08.183Z,17.00
2018-07-27T02:02:36.885Z,17.00
2018-07-27T02:05:06.564Z,16.90
2018-07-27T02:10:04.210Z,17.10
2018-07-27T02:12:32.900Z,17.00
2018-07-27T02:15:01.543Z,17.00
2018-07-27T02:17:30.247Z,17.00
2018-07-27T02:19:58.895Z,16.90
2018-07-27T02:22:27.585Z,17.00
2018-07-27T02:24:56.239Z,17.00
2018-07-27T02:29:53.406Z,17.10
2018-07-27T02:34:50.652Z,17.40
2018-07-27T02:37:19.320Z,17.50
2018-07-27T02:39:47.992Z,17.60
2018-07-27T02:42:16.735Z,17.50
2018-07-27T02:47:14.029Z,17.30
2018-07-27T02:49:42.763Z,17.20
2018-07-27T02:52:11.545Z,17.10
2018-07-27T02:54:40.344Z,17.10
2018-07-27T02:57:09.043Z,17.00
2018-07-27T02:59:37.773Z,16.90
2018-07-27T03:02:06.648Z,16.90
2018-07-27T03:04:35.336Z,16.80
2018-07-27T03:07:04.168Z,16.80
2018-07-27T03:09:32.869Z,16.70
2018-07-27T03:12:01.575Z,16.60
2018-07-27T03:14:30.229Z,16.40
2018-07-27T03:16:58.918Z,16.30
2018-07-27T03:19:27.611Z,16.20
2018-07-27T03:24:24.802Z,16.20
2018-07-27T03:29:21.927Z,16.20
2018-07-27T03:31:50.751Z,16.30
2018-07-27T03:34:19.450Z,16.50
2018-07-27T03:36:48.116Z,16.40
2018-07-27T03:41:45.333Z,16.40
2018-07-27T03:44:14.058Z,16.50
2018-07-27T03:46:42.710Z,16.60
2018-07-27T03:49:11.471Z,16.60
2018-07-27T03:51:40.151Z,16.60
2018-07-27T03:54:08.876Z,16.50
2018-07-27T03:56:37.556Z,16.50
2018-07-27T03:59:06.224Z,16.50
2018-07-27T04:01:35.043Z,16.50
2018-07-27T04:04:03.700Z,16.60
2018-07-27T04:06:32.336Z,16.70
2018-07-27T04:09:00.990Z,16.70
2018-07-27T04:11:29.615Z,16.80
2018-07-27T04:16:26.828Z,17.00
2018-07-27T04:18:55.525Z,17.00
2018-07-27T04:21:24.247Z,17.00
2018-07-27T04:26:21.439Z,16.60
2018-07-27T04:28:50.108Z,16.60
2018-07-27T04:33:47.323Z,16.80
2018-07-27T04:36:16.016Z,17.00
2018-07-27T04:38:44.665Z,17.10
2018-07-27T04:41:13.368Z,17.30
2018-07-27T04:43:42.046Z,17.50
2018-07-27T04:46:10.744Z,17.50
2018-07-27T04:48:39.508Z,17.40
2018-07-27T04:51:08.193Z,17.30
2018-07-27T04:53:36.955Z,17.30
2018-07-27T04:58:34.535Z,18.40
2018-07-27T05:03:31.765Z,18.70
2018-07-27T05:06:00.443Z,18.80
2018-07-27T05:08:29.103Z,18.80
2018-07-27T05:10:57.795Z,18.90
2018-07-27T05:13:26.463Z,19.10
2018-07-27T05:15:55.245Z,19.60
2018-07-27T05:18:24.062Z,20.00
2018-07-27T05:20:52.736Z,20.50
2018-07-27T05:23:21.474Z,20.60
2018-07-27T05:28:18.741Z,20.70
2018-07-27T05:30:47.386Z,20.90
2018-07-27T05:33:16.097Z,21.00
2018-07-27T05:35:44.819Z,21.10
2018-07-27T05:38:13.467Z,21.10
2018-07-27T05:40:42.133Z,21.10
2018-07-27T05:43:10.781Z,21.10
2018-07-27T05:45:39.420Z,21.00
2018-07-27T05:48:08.106Z,20.80
2018-07-27T05:50:36.766Z,20.80
2018-07-27T05:53:05.434Z,20.70
2018-07-27T05:55:34.158Z,20.60
2018-07-27T05:58:02.953Z,20.50
2018-07-27T06:00:31.688Z,20.40
2018-07-27T06:03:00.444Z,20.30
2018-07-27T06:05:29.180Z,20.30
2018-07-27T06:07:57.825Z,20.50
2018-07-27T06:12:55.164Z,20.70
2018-07-27T06:15:24.099Z,20.80
2018-07-27T06:17:52.887Z,21.10
2018-07-27T06:20:21.581Z,21.10
2018-07-27T06:22:50.336Z,21.30
2018-07-27T06:27:47.663Z,21.80
2018-07-27T06:30:16.387Z,22.00
2018-07-27T06:32:45.028Z,22.40
2018-07-27T06:35:13.733Z,22.80
2018-07-27T06:37:42.490Z,23.10
2018-07-27T06:40:11.248Z,23.50
2018-07-27T06:47:36.920Z,24.20
2018-07-27T06:50:05.947Z,24.30
2018-07-27T06:52:34.805Z,24.50
2018-07-27T06:57:31.933Z,25.00
2018-07-27T07:00:00.579Z,25.10
2018-07-27T07:02:29.240Z,25.00
2018-07-27T07:04:57.899Z,25.40
2018-07-27T07:07:26.627Z,25.60
2018-07-27T07:09:55.354Z,25.70
2018-07-27T07:12:23.981Z,25.80
2018-07-27T07:14:52.902Z,25.70
2018-07-27T07:17:21.631Z,25.70
2018-07-27T07:19:50.274Z,25.80
2018-07-27T07:22:18.974Z,25.80
2018-07-27T07:24:47.664Z,26.10
2018-07-27T07:27:16.375Z,26.50
2018-07-27T07:34:42.804Z,27.10
2018-07-27T07:37:12.711Z,27.70
2018-07-27T07:39:42.470Z,28.00
2018-07-27T07:42:11.146Z,27.90
2018-07-27T07:47:08.293Z,26.90
2018-07-27T07:49:37.006Z,26.90
2018-07-27T07:52:05.868Z,27.00
2018-07-27T07:54:37.721Z,27.50
2018-07-27T07:57:06.532Z,27.80
2018-07-27T08:02:03.866Z,28.40
2018-07-27T08:04:33.489Z,28.80
2018-07-27T08:07:02.236Z,29.30
2018-07-27T08:09:30.926Z,29.50
2018-07-27T08:12:00.376Z,29.30
2018-07-27T08:14:29.328Z,29.20
2018-07-27T08:16:58.119Z,29.10
2018-07-27T08:19:27.638Z,29.40
2018-07-27T08:21:56.358Z,29.50
2018-07-27T08:26:55.507Z,29.70
2018-07-27T08:29:28.153Z,29.90
2018-07-27T08:31:57.344Z,30.20
2018-07-27T08:36:54.823Z,31.00
2018-07-27T08:39:24.762Z,30.80
2018-07-27T08:41:53.536Z,30.70
2018-07-27T08:44:27.533Z,30.50
2018-07-27T08:46:56.289Z,29.50
2018-07-27T08:49:25.051Z,29.50
2018-07-27T08:51:53.879Z,30.10
2018-07-27T08:54:22.669Z,30.40
2018-07-27T08:56:51.333Z,30.80
2018-07-27T08:59:20.027Z,30.90
2018-07-27T09:01:48.791Z,30.80
2018-07-27T09:04:17.529Z,31.10
2018-07-27T09:06:46.264Z,31.50
2018-07-27T09:09:16.132Z,31.80
2018-07-27T09:11:44.837Z,32.20
2018-07-27T09:14:13.701Z,32.20
2018-07-27T09:16:42.423Z,32.30
2018-07-27T09:19:11.123Z,32.50
2018-07-27T09:21:41.798Z,32.80
2018-07-27T09:24:10.669Z,32.70
2018-07-27T09:26:39.339Z,32.60
2018-07-27T09:29:08.017Z,32.80
2018-07-27T09:31:36.699Z,33.20
2018-07-27T09:34:05.518Z,33.50
2018-07-27T09:36:34.201Z,33.80
2018-07-27T09:39:03.066Z,33.60
2018-07-27T09:41:31.801Z,33.80
2018-07-27T09:46:29.177Z,34.40
2018-07-27T09:48:57.851Z,34.30
2018-07-27T09:53:55.166Z,34.50
2018-07-27T09:56:23.925Z,34.70
2018-07-27T10:01:23.353Z,34.60
2018-07-27T10:03:53.413Z,34.50
2018-07-27T10:06:22.147Z,34.50
2018-07-27T10:08:50.838Z,34.30
2018-07-27T10:13:48.731Z,35.00
2018-07-27T10:16:17.459Z,35.10
2018-07-27T10:18:46.201Z,35.40
2018-07-27T10:21:14.918Z,35.40
2018-07-27T10:23:43.614Z,35.40
2018-07-27T10:26:16.324Z,35.10
2018-07-27T10:28:45.001Z,35.60
2018-07-27T10:31:13.654Z,35.60
2018-07-27T10:33:42.393Z,35.40
2018-07-27T10:36:11.028Z,34.90
2018-07-27T10:38:39.781Z,35.20
2018-07-27T10:41:08.397Z,35.30
2018-07-27T10:43:37.053Z,35.90
2018-07-27T10:46:07.385Z,35.90
2018-07-27T10:48:36.091Z,35.70
2018-07-27T10:51:04.783Z,35.90
2018-07-27T10:53:33.431Z,35.90
2018-07-27T10:56:02.205Z,35.60
2018-07-27T10:58:31.838Z,36.10
2018-07-27T11:01:00.486Z,36.00
2018-07-27T11:05:58.536Z,35.90
2018-07-27T11:08:28.171Z,36.10
2018-07-27T11:10:56.871Z,36.40
2018-07-27T11:13:25.541Z,36.60
2018-07-27T11:15:54.270Z,36.70
2018-07-27T11:18:22.969Z,36.90
2018-07-27T11:20:51.630Z,37.00
2018-07-27T11:23:20.278Z,37.10
2018-07-27T11:25:48.928Z,36.80
2018-07-27T11:28:17.600Z,36.90
2018-07-27T11:30:46.691Z,37.10
2018-07-27T11:33:15.366Z,37.60
2018-07-27T11:35:44.105Z,37.70
2018-07-27T11:38:12.811Z,37.70
2018-07-27T11:40:41.703Z,37.20
2018-07-27T11:43:10.454Z,37.40
2018-07-27T11:45:39.123Z,37.50
2018-07-27T11:48:07.805Z,37.90
2018-07-27T11:50:36.486Z,37.90
2018-07-27T11:53:05.251Z,38.00
2018-07-27T11:55:33.915Z,37.90
2018-07-27T11:58:02.580Z,37.60
2018-07-27T12:00:32.174Z,37.70
2018-07-27T12:03:00.876Z,37.70
2018-07-27T12:05:29.684Z,37.90
2018-07-27T12:10:26.953Z,37.70
2018-07-27T12:17:53.040Z,37.80
2018-07-27T12:20:21.865Z,37.70
2018-07-27T12:22:50.552Z,37.80
2018-07-27T12:25:19.291Z,38.00
2018-07-27T12:27:48.094Z,38.10
2018-07-27T12:30:16.747Z,38.30
2018-07-27T12:35:13.872Z,38.50
2018-07-27T12:37:42.625Z,39.10
2018-07-27T12:40:11.320Z,39.00
2018-07-27T12:42:39.990Z,39.00
2018-07-27T12:45:08.686Z,38.60
2018-07-27T12:47:38.135Z,38.10
2018-07-27T12:50:06.893Z,38.30
2018-07-27T12:52:36.273Z,38.10
2018-07-27T12:55:05.653Z,37.80
2018-07-27T13:00:05.399Z,37.50
2018-07-27T13:02:34.146Z,38.20
2018-07-27T13:05:02.877Z,38.40
2018-07-27T13:07:31.666Z,38.40
2018-07-27T13:10:06.497Z,38.60
2018-07-27T13:12:36.908Z,38.30
2018-07-27T13:15:07.740Z,38.40
2018-07-27T13:17:38.099Z,38.30
2018-07-27T13:20:07.543Z,38.60
2018-07-27T13:22:36.312Z,38.30
2018-07-27T13:25:05.167Z,38.30
2018-07-27T13:27:33.810Z,38.60
2018-07-27T13:30:03.866Z,39.00
2018-07-27T13:32:32.543Z,39.50
2018-07-27T13:35:01.361Z,39.40
2018-07-27T13:40:01.264Z,39.00
2018-07-27T13:42:31.290Z,39.20
2018-07-27T13:45:00.083Z,39.10
2018-07-27T13:47:28.813Z,38.60
2018-07-27T13:49:57.551Z,38.70
2018-07-27T13:52:26.241Z,38.50
2018-07-27T13:54:55.388Z,38.60
2018-07-27T13:57:24.118Z,38.40
2018-07-27T13:59:52.915Z,38.60
2018-07-27T14:02:22.083Z,38.70
2018-07-27T14:04:50.839Z,38.70
2018-07-27T14:07:20.135Z,38.60
2018-07-27T14:09:48.845Z,38.90
2018-07-27T14:14:46.076Z,38.60
2018-07-27T14:17:14.796Z,38.20
2018-07-27T14:19:43.513Z,38.00
2018-07-27T14:22:12.228Z,37.90
2018-07-27T14:24:40.945Z,38.40
2018-07-27T14:27:09.904Z,38.60
2018-07-27T14:29:39.130Z,38.00
2018-07-27T14:32:08.712Z,38.20
2018-07-27T14:34:37.473Z,37.40
2018-07-27T14:37:06.321Z,36.90
2018-07-27T14:39:35.005Z,36.70
2018-07-27T14:42:03.755Z,36.70
2018-07-27T14:44:32.629Z,36.90
2018-07-27T14:47:01.296Z,36.80
2018-07-27T14:49:29.992Z,36.90
2018-07-27T14:51:58.675Z,37.20
2018-07-27T14:54:27.430Z,37.50
2018-07-27T14:56:56.190Z,37.00
2018-07-27T14:59:25.378Z,36.60
2018-07-27T15:01:54.056Z,36.10
2018-07-27T15:04:22.778Z,36.30
2018-07-27T15:06:51.515Z,36.20
2018-07-27T15:09:20.142Z,36.70
2018-07-27T15:11:48.800Z,37.00
2018-07-27T15:14:17.522Z,36.80
2018-07-27T15:16:46.755Z,36.60
2018-07-27T15:19:15.428Z,36.40
2018-07-27T15:24:12.662Z,36.60
2018-07-27T15:26:41.403Z,36.60
2018-07-27T15:29:11.066Z,37.00
2018-07-27T15:31:39.766Z,37.10
2018-07-27T15:39:07.888Z,36.70
2018-07-27T15:41:36.861Z,36.50
2018-07-27T15:44:05.633Z,36.10
2018-07-27T15:46:34.350Z,35.90
2018-07-27T15:51:33.231Z,36.30
2018-07-27T15:54:02.603Z,36.30
2018-07-27T15:56:32.186Z,35.90
2018-07-27T15:59:01.801Z,35.10
2018-07-27T16:01:30.585Z,34.40
2018-07-27T16:03:59.282Z,33.70
2018-07-27T16:08:56.552Z,32.80
2018-07-27T16:11:25.363Z,32.40
2018-07-27T16:13:54.262Z,31.90
2018-07-27T16:16:23.005Z,31.70
2018-07-27T16:18:51.634Z,31.50
2018-07-27T16:21:20.345Z,31.40
2018-07-27T16:26:17.520Z,31.10
2018-07-27T16:28:46.183Z,31.10
2018-07-27T16:31:14.945Z,31.00
2018-07-27T16:33:43.613Z,30.70
2018-07-27T16:36:12.323Z,29.00
2018-07-27T16:38:41.050Z,27.40
2018-07-27T16:41:09.804Z,26.30
2018-07-27T16:43:38.481Z,25.80
2018-07-27T16:46:07.216Z,25.40
2018-07-27T16:48:35.906Z,25.10
2018-07-27T16:51:04.699Z,24.80
2018-07-27T16:53:34.454Z,24.70
2018-07-27T16:56:03.255Z,24.50
2018-07-27T16:58:31.993Z,24.50
2018-07-27T17:01:00.699Z,24.70
2018-07-27T17:03:29.404Z,24.70
2018-07-27T17:05:58.062Z,24.70
2018-07-27T17:08:26.883Z,24.90
2018-07-27T17:10:55.613Z,25.10
2018-07-27T17:13:24.351Z,25.30
2018-07-27T17:15:53.486Z,25.40
2018-07-27T17:18:22.233Z,25.50
2018-07-27T17:20:50.934Z,25.40
2018-07-27T17:23:19.633Z,25.50
2018-07-27T17:30:39.294Z,25.80
2018-07-27T17:33:08.037Z,25.80
2018-07-27T17:35:36.698Z,26.00
2018-07-27T17:38:05.601Z,26.30
2018-07-27T17:43:02.825Z,26.50
2018-07-27T17:45:32.250Z,26.40
2018-07-27T17:48:01.044Z,26.20
2018-07-27T17:50:29.710Z,25.70
2018-07-27T17:52:59.411Z,25.50
2018-07-27T17:55:28.146Z,25.20
2018-07-27T17:57:58.651Z,25.10
2018-07-27T18:00:27.490Z,24.90
2018-07-27T18:02:56.172Z,24.80
2018-07-27T18:05:24.875Z,24.70
2018-07-27T18:07:53.652Z,24.70
2018-07-27T18:12:50.729Z,24.60
2018-07-27T18:15:19.826Z,24.40
2018-07-27T18:17:48.453Z,24.20
2018-07-27T18:20:17.198Z,24.00
2018-07-27T18:22:45.953Z,23.90
2018-07-27T18:25:17.172Z,23.80
2018-07-27T18:27:46.563Z,23.70
2018-07-27T18:30:15.422Z,23.60
2018-07-27T18:32:44.104Z,23.50
2018-07-27T18:35:12.741Z,23.60
2018-07-27T18:37:41.455Z,23.60
2018-07-27T18:40:10.163Z,23.50
2018-07-27T18:42:38.803Z,23.30
2018-07-27T18:47:36.686Z,23.20
2018-07-27T18:50:07.085Z,23.20
2018-07-27T18:52:36.283Z,23.10
2018-07-27T18:55:05.521Z,23.10
2018-07-27T18:57:34.263Z,23.00
2018-07-27T19:00:03.266Z,22.90
2018-07-27T19:02:32.278Z,22.90
2018-07-27T19:07:29.480Z,22.80
2018-07-27T19:09:58.162Z,22.70
2018-07-27T19:12:26.952Z,22.60
2018-07-27T19:14:55.716Z,22.50
2018-07-27T19:17:24.561Z,22.40
2018-07-27T19:19:53.260Z,22.40
2018-07-27T19:22:22.003Z,22.40
2018-07-27T19:24:50.715Z,22.30
2018-07-27T19:27:19.417Z,22.30
2018-07-27T19:29:48.075Z,22.30
2018-07-27T19:32:16.773Z,22.40
2018-07-27T19:34:45.575Z,22.40
2018-07-27T19:37:14.303Z,22.20
2018-07-27T19:39:42.998Z,22.10
2018-07-27T19:42:11.696Z,21.90
2018-07-27T19:44:40.550Z,21.90
2018-07-27T19:47:09.643Z,21.80
2018-07-27T19:52:07.443Z,21.90
2018-07-27T19:54:36.225Z,22.00
2018-07-27T19:57:04.948Z,22.00
2018-07-27T19:59:33.605Z,22.10
2018-07-27T20:02:02.357Z,22.10
2018-07-27T20:06:59.681Z,22.00
2018-07-27T20:09:29.087Z,21.90
2018-07-27T20:11:57.951Z,21.80
2018-07-27T20:14:27.092Z,21.70
2018-07-27T20:16:55.860Z,21.70
2018-07-27T20:19:25.088Z,21.50
2018-07-27T20:21:53.832Z,21.40
2018-07-27T20:24:22.545Z,21.50
2018-07-27T20:26:51.297Z,21.50
2018-07-27T20:29:20.091Z,21.40
2018-07-27T20:31:48.940Z,21.40
2018-07-27T20:34:18.518Z,21.40
2018-07-27T20:36:47.217Z,21.40
2018-07-27T20:39:15.962Z,21.30
2018-07-27T20:41:44.745Z,21.30
2018-07-27T20:44:13.490Z,21.20
2018-07-27T20:49:11.553Z,21.20
2018-07-27T20:51:40.885Z,21.30
2018-07-27T20:54:10.724Z,21.30
2018-07-27T20:56:39.493Z,21.30
2018-07-27T20:59:09.131Z,21.30
2018-07-27T21:01:37.877Z,21.40
2018-07-27T21:06:35.146Z,21.30
2018-07-27T21:11:35.881Z,21.30
2018-07-27T21:14:05.248Z,21.40
2018-07-27T21:16:34.032Z,21.30
2018-07-27T21:19:02.775Z,21.30
2018-07-27T21:21:31.704Z,21.30
2018-07-27T21:24:00.454Z,21.20
2018-07-27T21:26:29.135Z,21.20
2018-07-27T21:31:26.377Z,21.00
2018-07-27T21:33:55.073Z,20.90
2018-07-27T21:36:23.757Z,20.90
2018-07-27T21:38:52.465Z,20.80
2018-07-27T21:41:21.465Z,20.80
2018-07-27T21:43:50.213Z,20.60
2018-07-27T21:46:19.038Z,20.50
2018-07-27T21:48:47.730Z,20.40
2018-07-27T21:51:16.462Z,20.30
2018-07-27T21:53:45.935Z,20.20
2018-07-27T21:56:14.735Z,20.10
2018-07-27T21:58:43.620Z,20.10
2018-07-27T22:01:12.480Z,20.10
2018-07-27T22:06:09.626Z,20.00
2018-07-27T22:08:38.273Z,20.10
2018-07-27T22:11:07.183Z,20.10
2018-07-27T22:13:35.879Z,20.20
2018-07-27T22:16:04.577Z,20.30
2018-07-27T22:18:33.263Z,20.30
2018-07-27T22:21:01.962Z,20.20
2018-07-27T22:25:59.128Z,20.00
2018-07-27T22:28:27.792Z,20.00
2018-07-27T22:30:56.571Z,20.00
2018-07-27T22:33:25.248Z,20.00
2018-07-27T22:35:53.957Z,20.00
2018-07-27T22:38:22.661Z,20.00
2018-07-27T22:43:19.816Z,20.00
2018-07-27T22:48:17.028Z,20.20
2018-07-27T22:50:46.344Z,20.10
2018-07-27T22:53:15.083Z,20.10
2018-07-27T22:55:43.829Z,20.10
2018-07-27T22:58:12.493Z,20.10
2018-07-27T23:00:41.695Z,20.10
2018-07-27T23:03:10.350Z,20.10
2018-07-27T23:05:39.000Z,20.20
2018-07-27T23:08:07.680Z,20.10
2018-07-27T23:10:36.325Z,20.10
2018-07-27T23:13:05.040Z,20.10
2018-07-27T23:15:33.808Z,20.00
2018-07-27T23:18:02.505Z,19.80
2018-07-27T23:20:31.178Z,19.70
2018-07-27T23:22:59.809Z,19.70
2018-07-27T23:27:56.927Z,19.70
2018-07-27T23:30:25.866Z,19.70
2018-07-27T23:35:23.378Z,19.50
2018-07-27T23:37:52.178Z,19.40
2018-07-27T23:40:20.811Z,19.40
2018-07-27T23:45:17.908Z,19.30
2018-07-27T23:47:46.589Z,19.40
2018-07-27T23:50:15.303Z,19.40
2018-07-27T23:52:44.006Z,19.30
2018-07-27T23:55:12.771Z,19.30
2018-07-27T23:57:41.410Z,19.20
